sensor_id;sensor_type;location;lat;lon;timestamp;P1;durP1;ratioP1;P2;durP2;ratioP2
58208;SDS011;44006;52.028;4.696;2022-09-21T00:03:42;9.75;;;4.72;;
58208;SDS011;44006;52.028;4.696;2022-09-21T00:06:09;7.15;;;3.50;;
58208;SDS011;44006;52.028;4.696;2022-09-21T00:08:35;8.15;;;3.45;;
58208;SDS011;44006;52.028;4.696;2022-09-21T00:11:00;7.88;;;3.90;;
58208;SDS011;44006;52.028;4.696;2022-09-21T00:13:27;6.55;;;3.45;;
58208;SDS011;44006;52.028;4.696;2022-09-21T00:15:55;9.88;;;3.70;;
58208;SDS011;44006;52.028;4.696;2022-09-21T00:18:21;6.05;;;4.18;;
58208;SDS011;44006;52.028;4.696;2022-09-21T00:20:46;7.07;;;3.88;;
58208;SDS011;44006;52.028;4.696;2022-09-21T00:23:11;6.88;;;3.70;;
58208;SDS011;44006;52.028;4.696;2022-09-21T00:25:37;8.32;;;3.55;;
58208;SDS011;44006;52.028;4.696;2022-09-21T00:28:02;7.55;;;3.63;;
58208;SDS011;44006;52.028;4.696;2022-09-21T00:30:27;6.63;;;3.15;;
58208;SDS011;44006;52.028;4.696;2022-09-21T00:32:52;5.00;;;3.42;;
58208;SDS011;44006;52.028;4.696;2022-09-21T00:35:18;6.95;;;3.08;;
58208;SDS011;44006;52.028;4.696;2022-09-21T00:37:43;6.72;;;3.15;;
58208;SDS011;44006;52.028;4.696;2022-09-21T00:40:08;6.28;;;3.40;;
58208;SDS011;44006;52.028;4.696;2022-09-21T00:42:34;6.10;;;3.25;;
58208;SDS011;44006;52.028;4.696;2022-09-21T00:44:59;4.90;;;3.08;;
58208;SDS011;44006;52.028;4.696;2022-09-21T00:49:57;4.70;;;3.00;;
58208;SDS011;44006;52.028;4.696;2022-09-21T00:52:23;6.45;;;2.80;;
58208;SDS011;44006;52.028;4.696;2022-09-21T00:54:54;7.88;;;2.63;;
58208;SDS011;44006;52.028;4.696;2022-09-21T00:57:20;4.57;;;2.42;;
58208;SDS011;44006;52.028;4.696;2022-09-21T00:59:47;7.28;;;3.55;;
58208;SDS011;44006;52.028;4.696;2022-09-21T01:02:14;5.82;;;2.95;;
58208;SDS011;44006;52.028;4.696;2022-09-21T01:04:39;5.90;;;3.10;;
58208;SDS011;44006;52.028;4.696;2022-09-21T01:07:06;5.38;;;2.78;;
58208;SDS011;44006;52.028;4.696;2022-09-21T01:09:34;9.18;;;2.67;;
58208;SDS011;44006;52.028;4.696;2022-09-21T01:17:43;7.28;;;2.90;;
58208;SDS011;44006;52.028;4.696;2022-09-21T01:25:42;4.38;;;2.50;;
58208;SDS011;44006;52.028;4.696;2022-09-21T01:31:02;6.25;;;2.75;;
58208;SDS011;44006;52.028;4.696;2022-09-21T01:33:34;5.10;;;2.83;;
58208;SDS011;44006;52.028;4.696;2022-09-21T01:36:08;5.57;;;2.47;;
58208;SDS011;44006;52.028;4.696;2022-09-21T01:38:42;5.13;;;2.33;;
58208;SDS011;44006;52.028;4.696;2022-09-21T01:41:09;3.83;;;2.25;;
58208;SDS011;44006;52.028;4.696;2022-09-21T01:43:37;5.72;;;2.50;;
58208;SDS011;44006;52.028;4.696;2022-09-21T01:46:03;6.30;;;2.45;;
58208;SDS011;44006;52.028;4.696;2022-09-21T01:48:31;6.63;;;2.70;;
58208;SDS011;44006;52.028;4.696;2022-09-21T01:50:59;4.93;;;2.30;;
58208;SDS011;44006;52.028;4.696;2022-09-21T01:53:32;5.13;;;2.30;;
58208;SDS011;44006;52.028;4.696;2022-09-21T01:56:21;5.82;;;2.50;;
58208;SDS011;44006;52.028;4.696;2022-09-21T01:58:58;5.68;;;2.72;;
58208;SDS011;44006;52.028;4.696;2022-09-21T02:01:27;8.63;;;2.83;;
58208;SDS011;44006;52.028;4.696;2022-09-21T02:03:54;3.85;;;2.40;;
58208;SDS011;44006;52.028;4.696;2022-09-21T02:06:21;5.70;;;2.30;;
58208;SDS011;44006;52.028;4.696;2022-09-21T02:08:48;3.92;;;2.33;;
58208;SDS011;44006;52.028;4.696;2022-09-21T02:11:13;7.68;;;2.65;;
58208;SDS011;44006;52.028;4.696;2022-09-21T02:13:40;7.35;;;2.90;;
58208;SDS011;44006;52.028;4.696;2022-09-21T02:26:23;4.30;;;2.10;;
58208;SDS011;44006;52.028;4.696;2022-09-21T02:29:34;5.95;;;2.88;;
58208;SDS011;44006;52.028;4.696;2022-09-21T02:31:46;3.92;;;2.28;;
58208;SDS011;44006;52.028;4.696;2022-09-21T02:34:17;3.67;;;2.00;;
58208;SDS011;44006;52.028;4.696;2022-09-21T02:37:05;4.75;;;2.00;;
58208;SDS011;44006;52.028;4.696;2022-09-21T02:39:37;5.82;;;3.25;;
58208;SDS011;44006;52.028;4.696;2022-09-21T02:44:35;6.03;;;2.30;;
58208;SDS011;44006;52.028;4.696;2022-09-21T02:49:29;7.50;;;2.50;;
58208;SDS011;44006;52.028;4.696;2022-09-21T02:51:57;3.33;;;2.40;;
58208;SDS011;44006;52.028;4.696;2022-09-21T02:54:24;4.25;;;2.33;;
58208;SDS011;44006;52.028;4.696;2022-09-21T02:56:50;4.00;;;2.15;;
58208;SDS011;44006;52.028;4.696;2022-09-21T02:59:18;5.65;;;2.25;;
58208;SDS011;44006;52.028;4.696;2022-09-21T03:01:44;2.97;;;2.20;;
58208;SDS011;44006;52.028;4.696;2022-09-21T03:04:09;3.42;;;2.28;;
58208;SDS011;44006;52.028;4.696;2022-09-21T03:06:35;6.40;;;2.58;;
58208;SDS011;44006;52.028;4.696;2022-09-21T03:09:00;5.30;;;2.03;;
58208;SDS011;44006;52.028;4.696;2022-09-21T03:11:25;4.80;;;2.05;;
58208;SDS011;44006;52.028;4.696;2022-09-21T03:13:51;5.03;;;2.13;;
58208;SDS011;44006;52.028;4.696;2022-09-21T03:16:16;4.20;;;2.10;;
58208;SDS011;44006;52.028;4.696;2022-09-21T03:18:42;6.35;;;2.05;;
58208;SDS011;44006;52.028;4.696;2022-09-21T03:21:08;5.65;;;2.33;;
58208;SDS011;44006;52.028;4.696;2022-09-21T03:23:34;4.53;;;2.13;;
58208;SDS011;44006;52.028;4.696;2022-09-21T03:25:59;5.10;;;2.42;;
58208;SDS011;44006;52.028;4.696;2022-09-21T03:28:24;4.07;;;1.88;;
58208;SDS011;44006;52.028;4.696;2022-09-21T03:30:50;5.70;;;2.20;;
58208;SDS011;44006;52.028;4.696;2022-09-21T03:33:15;3.08;;;1.98;;
58208;SDS011;44006;52.028;4.696;2022-09-21T03:35:41;7.55;;;1.92;;
58208;SDS011;44006;52.028;4.696;2022-09-21T03:38:06;7.75;;;2.47;;
58208;SDS011;44006;52.028;4.696;2022-09-21T03:40:32;8.10;;;2.70;;
58208;SDS011;44006;52.028;4.696;2022-09-21T03:42:57;5.40;;;2.20;;
58208;SDS011;44006;52.028;4.696;2022-09-21T03:45:22;4.40;;;2.15;;
58208;SDS011;44006;52.028;4.696;2022-09-21T03:47:53;3.67;;;2.00;;
58208;SDS011;44006;52.028;4.696;2022-09-21T03:50:19;3.00;;;1.80;;
58208;SDS011;44006;52.028;4.696;2022-09-21T03:52:44;3.83;;;2.07;;
58208;SDS011;44006;52.028;4.696;2022-09-21T03:55:10;3.65;;;2.05;;
58208;SDS011;44006;52.028;4.696;2022-09-21T03:57:35;6.00;;;2.58;;
58208;SDS011;44006;52.028;4.696;2022-09-21T04:00:01;4.55;;;2.47;;
58208;SDS011;44006;52.028;4.696;2022-09-21T04:02:28;4.63;;;2.50;;
58208;SDS011;44006;52.028;4.696;2022-09-21T04:04:53;5.15;;;2.50;;
58208;SDS011;44006;52.028;4.696;2022-09-21T04:07:19;3.92;;;2.17;;
58208;SDS011;44006;52.028;4.696;2022-09-21T04:09:44;7.35;;;2.72;;
58208;SDS011;44006;52.028;4.696;2022-09-21T04:12:09;5.13;;;2.45;;
58208;SDS011;44006;52.028;4.696;2022-09-21T04:14:34;4.30;;;2.28;;
58208;SDS011;44006;52.028;4.696;2022-09-21T04:17:00;6.35;;;2.33;;
58208;SDS011;44006;52.028;4.696;2022-09-21T04:19:26;4.78;;;2.30;;
58208;SDS011;44006;52.028;4.696;2022-09-21T04:21:51;4.37;;;2.37;;
58208;SDS011;44006;52.028;4.696;2022-09-21T04:24:17;3.95;;;2.30;;
58208;SDS011;44006;52.028;4.696;2022-09-21T04:26:43;3.72;;;2.22;;
58208;SDS011;44006;52.028;4.696;2022-09-21T04:29:09;3.97;;;2.30;;
58208;SDS011;44006;52.028;4.696;2022-09-21T04:31:35;5.38;;;2.42;;
58208;SDS011;44006;52.028;4.696;2022-09-21T04:34:00;3.38;;;1.95;;
58208;SDS011;44006;52.028;4.696;2022-09-21T04:36:28;3.90;;;2.07;;
58208;SDS011;44006;52.028;4.696;2022-09-21T04:38:53;5.53;;;2.53;;
58208;SDS011;44006;52.028;4.696;2022-09-21T04:41:18;7.03;;;2.40;;
58208;SDS011;44006;52.028;4.696;2022-09-21T04:43:44;4.93;;;2.67;;
58208;SDS011;44006;52.028;4.696;2022-09-21T04:46:11;7.43;;;2.38;;
58208;SDS011;44006;52.028;4.696;2022-09-21T04:48:37;6.15;;;2.63;;
58208;SDS011;44006;52.028;4.696;2022-09-21T04:51:03;5.22;;;2.67;;
58208;SDS011;44006;52.028;4.696;2022-09-21T04:53:30;4.38;;;2.70;;
58208;SDS011;44006;52.028;4.696;2022-09-21T04:55:57;5.10;;;2.67;;
58208;SDS011;44006;52.028;4.696;2022-09-21T04:58:23;4.43;;;2.28;;
58208;SDS011;44006;52.028;4.696;2022-09-21T05:00:49;6.25;;;2.40;;
58208;SDS011;44006;52.028;4.696;2022-09-21T05:03:15;8.00;;;2.67;;
58208;SDS011;44006;52.028;4.696;2022-09-21T05:05:45;5.78;;;2.63;;
58208;SDS011;44006;52.028;4.696;2022-09-21T05:08:10;4.07;;;2.22;;
58208;SDS011;44006;52.028;4.696;2022-09-21T05:10:41;5.45;;;2.40;;
58208;SDS011;44006;52.028;4.696;2022-09-21T05:13:06;4.82;;;2.42;;
58208;SDS011;44006;52.028;4.696;2022-09-21T05:15:32;6.10;;;2.30;;
58208;SDS011;44006;52.028;4.696;2022-09-21T05:17:57;6.68;;;2.28;;
58208;SDS011;44006;52.028;4.696;2022-09-21T05:20:22;4.78;;;2.28;;
58208;SDS011;44006;52.028;4.696;2022-09-21T05:22:49;4.72;;;2.42;;
58208;SDS011;44006;52.028;4.696;2022-09-21T05:25:14;7.28;;;2.40;;
58208;SDS011;44006;52.028;4.696;2022-09-21T05:27:39;4.05;;;2.63;;
58208;SDS011;44006;52.028;4.696;2022-09-21T05:30:05;4.07;;;2.33;;
58208;SDS011;44006;52.028;4.696;2022-09-21T05:37:43;8.25;;;2.65;;
58208;SDS011;44006;52.028;4.696;2022-09-21T05:40:10;3.30;;;2.30;;
58208;SDS011;44006;52.028;4.696;2022-09-21T05:42:35;4.97;;;2.70;;
58208;SDS011;44006;52.028;4.696;2022-09-21T05:45:01;3.88;;;2.47;;
58208;SDS011;44006;52.028;4.696;2022-09-21T05:50:01;4.32;;;2.60;;
58208;SDS011;44006;52.028;4.696;2022-09-21T06:00:03;7.72;;;3.28;;
58208;SDS011;44006;52.028;4.696;2022-09-21T06:04:56;4.10;;;2.80;;
58208;SDS011;44006;52.028;4.696;2022-09-21T06:07:23;6.18;;;2.88;;
58208;SDS011;44006;52.028;4.696;2022-09-21T06:09:48;5.53;;;2.80;;
58208;SDS011;44006;52.028;4.696;2022-09-21T06:12:14;5.68;;;2.88;;
58208;SDS011;44006;52.028;4.696;2022-09-21T06:14:39;6.38;;;2.95;;
58208;SDS011;44006;52.028;4.696;2022-09-21T06:17:04;5.93;;;3.25;;
58208;SDS011;44006;52.028;4.696;2022-09-21T06:19:29;6.43;;;3.50;;
58208;SDS011;44006;52.028;4.696;2022-09-21T06:21:54;5.40;;;2.95;;
58208;SDS011;44006;52.028;4.696;2022-09-21T06:24:20;10.07;;;3.65;;
58208;SDS011;44006;52.028;4.696;2022-09-21T06:26:45;6.95;;;3.28;;
58208;SDS011;44006;52.028;4.696;2022-09-21T06:29:10;6.63;;;3.50;;
58208;SDS011;44006;52.028;4.696;2022-09-21T06:31:35;6.13;;;3.00;;
58208;SDS011;44006;52.028;4.696;2022-09-21T06:34:01;6.55;;;3.42;;
58208;SDS011;44006;52.028;4.696;2022-09-21T06:36:26;6.65;;;3.17;;
58208;SDS011;44006;52.028;4.696;2022-09-21T06:38:51;5.50;;;3.47;;
58208;SDS011;44006;52.028;4.696;2022-09-21T06:41:16;6.65;;;3.33;;
58208;SDS011;44006;52.028;4.696;2022-09-21T06:43:42;5.53;;;3.30;;
58208;SDS011;44006;52.028;4.696;2022-09-21T06:46:08;4.50;;;3.20;;
58208;SDS011;44006;52.028;4.696;2022-09-21T06:48:33;8.82;;;3.90;;
58208;SDS011;44006;52.028;4.696;2022-09-21T06:51:00;5.30;;;3.40;;
58208;SDS011;44006;52.028;4.696;2022-09-21T06:53:28;6.22;;;3.55;;
58208;SDS011;44006;52.028;4.696;2022-09-21T06:56:04;5.72;;;3.22;;
58208;SDS011;44006;52.028;4.696;2022-09-21T06:58:30;7.60;;;3.85;;
58208;SDS011;44006;52.028;4.696;2022-09-21T07:00:56;6.90;;;3.80;;
58208;SDS011;44006;52.028;4.696;2022-09-21T07:03:21;7.60;;;3.90;;
58208;SDS011;44006;52.028;4.696;2022-09-21T07:05:46;7.00;;;4.00;;
58208;SDS011;44006;52.028;4.696;2022-09-21T07:08:11;8.40;;;3.80;;
58208;SDS011;44006;52.028;4.696;2022-09-21T07:10:37;7.75;;;4.65;;
58208;SDS011;44006;52.028;4.696;2022-09-21T07:13:02;8.87;;;4.20;;
58208;SDS011;44006;52.028;4.696;2022-09-21T07:15:28;12.10;;;4.32;;
58208;SDS011;44006;52.028;4.696;2022-09-21T07:17:54;8.98;;;4.50;;
58208;SDS011;44006;52.028;4.696;2022-09-21T07:20:19;8.82;;;3.90;;
58208;SDS011;44006;52.028;4.696;2022-09-21T07:22:44;10.27;;;4.22;;
58208;SDS011;44006;52.028;4.696;2022-09-21T07:25:10;13.95;;;4.63;;
58208;SDS011;44006;52.028;4.696;2022-09-21T07:27:35;10.65;;;4.63;;
58208;SDS011;44006;52.028;4.696;2022-09-21T07:30:00;12.18;;;4.45;;
58208;SDS011;44006;52.028;4.696;2022-09-21T07:32:26;12.30;;;4.43;;
58208;SDS011;44006;52.028;4.696;2022-09-21T07:34:51;14.68;;;4.20;;
58208;SDS011;44006;52.028;4.696;2022-09-21T07:37:21;7.05;;;3.80;;
58208;SDS011;44006;52.028;4.696;2022-09-21T07:39:47;9.55;;;3.95;;
58208;SDS011;44006;52.028;4.696;2022-09-21T07:42:12;9.38;;;4.22;;
58208;SDS011;44006;52.028;4.696;2022-09-21T07:44:39;11.43;;;3.53;;
58208;SDS011;44006;52.028;4.696;2022-09-21T07:47:04;8.77;;;3.30;;
58208;SDS011;44006;52.028;4.696;2022-09-21T07:49:30;9.18;;;3.17;;
58208;SDS011;44006;52.028;4.696;2022-09-21T07:51:55;8.35;;;2.60;;
58208;SDS011;44006;52.028;4.696;2022-09-21T07:54:21;10.10;;;2.20;;
58208;SDS011;44006;52.028;4.696;2022-09-21T07:56:46;6.23;;;2.03;;
58208;SDS011;44006;52.028;4.696;2022-09-21T07:59:31;5.28;;;2.30;;
58208;SDS011;44006;52.028;4.696;2022-09-21T08:01:56;5.93;;;1.73;;
58208;SDS011;44006;52.028;4.696;2022-09-21T08:04:22;9.20;;;2.08;;
58208;SDS011;44006;52.028;4.696;2022-09-21T08:06:47;5.10;;;1.50;;
58208;SDS011;44006;52.028;4.696;2022-09-21T08:09:13;7.20;;;1.70;;
58208;SDS011;44006;52.028;4.696;2022-09-21T08:11:38;6.65;;;1.77;;
58208;SDS011;44006;52.028;4.696;2022-09-21T08:14:09;7.13;;;1.60;;
58208;SDS011;44006;52.028;4.696;2022-09-21T08:16:36;4.25;;;1.25;;
58208;SDS011;44006;52.028;4.696;2022-09-21T08:19:01;4.45;;;1.58;;
58208;SDS011;44006;52.028;4.696;2022-09-21T08:21:27;4.75;;;1.35;;
58208;SDS011;44006;52.028;4.696;2022-09-21T08:23:53;7.13;;;1.65;;
58208;SDS011;44006;52.028;4.696;2022-09-21T08:26:18;5.43;;;1.50;;
58208;SDS011;44006;52.028;4.696;2022-09-21T08:28:45;7.60;;;1.30;;
58208;SDS011;44006;52.028;4.696;2022-09-21T08:31:13;8.43;;;1.80;;
58208;SDS011;44006;52.028;4.696;2022-09-21T08:33:38;6.38;;;1.85;;
58208;SDS011;44006;52.028;4.696;2022-09-21T08:36:04;5.72;;;2.10;;
58208;SDS011;44006;52.028;4.696;2022-09-21T08:38:33;4.78;;;1.58;;
58208;SDS011;44006;52.028;4.696;2022-09-21T08:40:59;6.90;;;1.75;;
58208;SDS011;44006;52.028;4.696;2022-09-21T08:43:33;6.32;;;1.48;;
58208;SDS011;44006;52.028;4.696;2022-09-21T08:45:59;8.50;;;1.83;;
58208;SDS011;44006;52.028;4.696;2022-09-21T08:48:26;8.52;;;1.60;;
58208;SDS011;44006;52.028;4.696;2022-09-21T08:50:56;7.35;;;1.67;;
58208;SDS011;44006;52.028;4.696;2022-09-21T08:56:18;7.43;;;2.20;;
58208;SDS011;44006;52.028;4.696;2022-09-21T08:58:44;7.03;;;2.22;;
58208;SDS011;44006;52.028;4.696;2022-09-21T09:09:14;10.50;;;2.30;;
58208;SDS011;44006;52.028;4.696;2022-09-21T09:20:19;6.35;;;1.70;;
58208;SDS011;44006;52.028;4.696;2022-09-21T09:25:15;5.57;;;1.40;;
58208;SDS011;44006;52.028;4.696;2022-09-21T09:27:42;7.53;;;1.60;;
58208;SDS011;44006;52.028;4.696;2022-09-21T09:32:57;7.38;;;1.67;;
58208;SDS011;44006;52.028;4.696;2022-09-21T09:35:44;6.15;;;1.40;;
58208;SDS011;44006;52.028;4.696;2022-09-21T09:38:22;6.40;;;1.30;;
58208;SDS011;44006;52.028;4.696;2022-09-21T09:43:19;5.72;;;1.45;;
58208;SDS011;44006;52.028;4.696;2022-09-21T09:50:51;5.18;;;1.40;;
58208;SDS011;44006;52.028;4.696;2022-09-21T09:53:17;6.78;;;1.02;;
58208;SDS011;44006;52.028;4.696;2022-09-21T09:55:49;5.88;;;1.10;;
58208;SDS011;44006;52.028;4.696;2022-09-21T09:58:16;5.13;;;1.27;;
58208;SDS011;44006;52.028;4.696;2022-09-21T10:00:41;6.53;;;1.20;;
58208;SDS011;44006;52.028;4.696;2022-09-21T10:03:14;5.40;;;1.58;;
58208;SDS011;44006;52.028;4.696;2022-09-21T10:05:40;4.65;;;1.05;;
58208;SDS011;44006;52.028;4.696;2022-09-21T10:08:52;7.90;;;1.50;;
58208;SDS011;44006;52.028;4.696;2022-09-21T10:10:52;4.57;;;1.23;;
58208;SDS011;44006;52.028;4.696;2022-09-21T10:13:31;7.40;;;1.73;;
58208;SDS011;44006;52.028;4.696;2022-09-21T10:15:58;5.97;;;1.45;;
58208;SDS011;44006;52.028;4.696;2022-09-21T10:18:25;2.90;;;1.20;;
58208;SDS011;44006;52.028;4.696;2022-09-21T10:20:56;6.43;;;1.45;;
58208;SDS011;44006;52.028;4.696;2022-09-21T10:23:22;5.78;;;1.30;;
58208;SDS011;44006;52.028;4.696;2022-09-21T10:26:01;6.53;;;1.13;;
58208;SDS011;44006;52.028;4.696;2022-09-21T10:28:27;4.80;;;1.08;;
58208;SDS011;44006;52.028;4.696;2022-09-21T10:31:09;5.47;;;1.02;;
58208;SDS011;44006;52.028;4.696;2022-09-21T10:33:41;5.15;;;1.15;;
58208;SDS011;44006;52.028;4.696;2022-09-21T10:36:11;4.05;;;1.17;;
58208;SDS011;44006;52.028;4.696;2022-09-21T10:38:48;4.13;;;1.27;;
58208;SDS011;44006;52.028;4.696;2022-09-21T10:41:14;4.10;;;1.35;;
58208;SDS011;44006;52.028;4.696;2022-09-21T10:43:40;6.53;;;1.08;;
58208;SDS011;44006;52.028;4.696;2022-09-21T10:46:06;6.15;;;1.25;;
58208;SDS011;44006;52.028;4.696;2022-09-21T10:48:32;4.93;;;1.10;;
58208;SDS011;44006;52.028;4.696;2022-09-21T10:50:57;2.88;;;0.77;;
58208;SDS011;44006;52.028;4.696;2022-09-21T10:58:20;3.63;;;0.88;;
58208;SDS011;44006;52.028;4.696;2022-09-21T11:00:46;4.15;;;0.90;;
58208;SDS011;44006;52.028;4.696;2022-09-21T11:03:49;7.93;;;1.25;;
58208;SDS011;44006;52.028;4.696;2022-09-21T11:08:48;5.68;;;1.08;;
58208;SDS011;44006;52.028;4.696;2022-09-21T11:16:54;4.57;;;1.20;;
58208;SDS011;44006;52.028;4.696;2022-09-21T11:19:34;3.28;;;0.75;;
58208;SDS011;44006;52.028;4.696;2022-09-21T11:42:30;8.43;;;1.20;;
58208;SDS011;44006;52.028;4.696;2022-09-21T11:44:59;4.38;;;0.70;;
58208;SDS011;44006;52.028;4.696;2022-09-21T12:00:13;5.35;;;1.00;;
58208;SDS011;44006;52.028;4.696;2022-09-21T12:03:05;3.80;;;0.90;;
58208;SDS011;44006;52.028;4.696;2022-09-21T12:08:36;3.80;;;0.70;;
58208;SDS011;44006;52.028;4.696;2022-09-21T12:13:50;1.40;;;0.45;;
58208;SDS011;44006;52.028;4.696;2022-09-21T12:23:51;5.50;;;0.68;;
58208;SDS011;44006;52.028;4.696;2022-09-21T12:26:18;3.50;;;0.73;;
58208;SDS011;44006;52.028;4.696;2022-09-21T12:28:51;4.25;;;0.70;;
58208;SDS011;44006;52.028;4.696;2022-09-21T12:31:22;2.42;;;1.02;;
58208;SDS011;44006;52.028;4.696;2022-09-21T12:34:33;5.18;;;0.70;;
58208;SDS011;44006;52.028;4.696;2022-09-21T12:36:38;4.32;;;0.80;;
58208;SDS011;44006;52.028;4.696;2022-09-21T12:39:06;2.17;;;0.73;;
58208;SDS011;44006;52.028;4.696;2022-09-21T12:41:41;4.22;;;0.73;;
58208;SDS011;44006;52.028;4.696;2022-09-21T12:46:46;1.73;;;0.50;;
58208;SDS011;44006;52.028;4.696;2022-09-21T12:49:17;3.50;;;0.88;;
58208;SDS011;44006;52.028;4.696;2022-09-21T12:51:46;3.05;;;0.60;;
58208;SDS011;44006;52.028;4.696;2022-09-21T13:09:33;2.67;;;0.82;;
58208;SDS011;44006;52.028;4.696;2022-09-21T13:12:05;4.05;;;0.95;;
58208;SDS011;44006;52.028;4.696;2022-09-21T13:14:32;5.05;;;0.75;;
58208;SDS011;44006;52.028;4.696;2022-09-21T13:17:00;5.00;;;0.85;;
58208;SDS011;44006;52.028;4.696;2022-09-21T13:19:31;4.55;;;0.60;;
58208;SDS011;44006;52.028;4.696;2022-09-21T13:22:42;2.97;;;0.70;;
58208;SDS011;44006;52.028;4.696;2022-09-21T13:24:44;2.67;;;0.73;;
58208;SDS011;44006;52.028;4.696;2022-09-21T13:27:11;3.72;;;0.52;;
58208;SDS011;44006;52.028;4.696;2022-09-21T13:29:37;3.38;;;0.82;;
58208;SDS011;44006;52.028;4.696;2022-09-21T13:34:33;3.08;;;0.80;;
58208;SDS011;44006;52.028;4.696;2022-09-21T13:39:43;3.35;;;0.90;;
58208;SDS011;44006;52.028;4.696;2022-09-21T13:44:54;4.32;;;0.77;;
58208;SDS011;44006;52.028;4.696;2022-09-21T13:47:32;4.00;;;0.73;;
58208;SDS011;44006;52.028;4.696;2022-09-21T13:50:02;2.78;;;0.70;;
58208;SDS011;44006;52.028;4.696;2022-09-21T13:55:03;3.93;;;0.77;;
58208;SDS011;44006;52.028;4.696;2022-09-21T14:02:36;8.43;;;1.05;;
58208;SDS011;44006;52.028;4.696;2022-09-21T14:05:06;3.20;;;0.75;;
58208;SDS011;44006;52.028;4.696;2022-09-21T14:07:33;3.03;;;0.80;;
58208;SDS011;44006;52.028;4.696;2022-09-21T14:09:59;4.65;;;0.82;;
58208;SDS011;44006;52.028;4.696;2022-09-21T14:12:26;2.75;;;0.88;;
58208;SDS011;44006;52.028;4.696;2022-09-21T14:17:40;4.80;;;0.70;;
58208;SDS011;44006;52.028;4.696;2022-09-21T14:22:49;4.30;;;0.80;;
58208;SDS011;44006;52.028;4.696;2022-09-21T14:25:47;6.80;;;0.93;;
58208;SDS011;44006;52.028;4.696;2022-09-21T14:28:13;3.05;;;0.90;;
58208;SDS011;44006;52.028;4.696;2022-09-21T14:30:46;2.95;;;0.80;;
58208;SDS011;44006;52.028;4.696;2022-09-21T14:35:42;6.97;;;1.10;;
58208;SDS011;44006;52.028;4.696;2022-09-21T14:38:18;2.72;;;0.77;;
58208;SDS011;44006;52.028;4.696;2022-09-21T14:40:47;2.85;;;0.60;;
58208;SDS011;44006;52.028;4.696;2022-09-21T14:43:15;2.97;;;0.70;;
58208;SDS011;44006;52.028;4.696;2022-09-21T14:46:02;2.22;;;0.63;;
58208;SDS011;44006;52.028;4.696;2022-09-21T14:56:25;4.93;;;1.00;;
58208;SDS011;44006;52.028;4.696;2022-09-21T14:59:05;4.38;;;0.80;;
58208;SDS011;44006;52.028;4.696;2022-09-21T15:01:35;4.97;;;1.00;;
58208;SDS011;44006;52.028;4.696;2022-09-21T15:15:44;3.95;;;1.23;;
58208;SDS011;44006;52.028;4.696;2022-09-21T15:18:16;3.70;;;0.90;;
58208;SDS011;44006;52.028;4.696;2022-09-21T15:20:52;2.70;;;0.70;;
58208;SDS011;44006;52.028;4.696;2022-09-21T15:23:18;5.25;;;0.80;;
58208;SDS011;44006;52.028;4.696;2022-09-21T15:25:52;3.70;;;0.70;;
58208;SDS011;44006;52.028;4.696;2022-09-21T15:28:23;3.10;;;0.88;;
58208;SDS011;44006;52.028;4.696;2022-09-21T15:30:48;2.13;;;0.70;;
58208;SDS011;44006;52.028;4.696;2022-09-21T15:33:14;3.92;;;0.93;;
58208;SDS011;44006;52.028;4.696;2022-09-21T15:35:44;6.80;;;0.93;;
58208;SDS011;44006;52.028;4.696;2022-09-21T15:38:24;3.40;;;0.90;;
58208;SDS011;44006;52.028;4.696;2022-09-21T15:40:51;3.83;;;1.10;;
58208;SDS011;44006;52.028;4.696;2022-09-21T15:43:17;2.65;;;1.10;;
58208;SDS011;44006;52.028;4.696;2022-09-21T15:45:54;4.28;;;1.40;;
58208;SDS011;44006;52.028;4.696;2022-09-21T15:48:21;3.97;;;1.40;;
58208;SDS011;44006;52.028;4.696;2022-09-21T15:50:50;4.47;;;1.73;;
58208;SDS011;44006;52.028;4.696;2022-09-21T15:56:01;5.70;;;1.58;;
58208;SDS011;44006;52.028;4.696;2022-09-21T16:00:52;4.97;;;1.40;;
58208;SDS011;44006;52.028;4.696;2022-09-21T16:03:19;5.65;;;1.80;;
58208;SDS011;44006;52.028;4.696;2022-09-21T16:05:47;5.43;;;1.85;;
58208;SDS011;44006;52.028;4.696;2022-09-21T16:10:46;1.98;;;0.75;;
58208;SDS011;44006;52.028;4.696;2022-09-21T16:13:19;1.70;;;0.88;;
58208;SDS011;44006;52.028;4.696;2022-09-21T16:16:07;4.30;;;1.30;;
58208;SDS011;44006;52.028;4.696;2022-09-21T16:18:45;4.32;;;1.20;;
58208;SDS011;44006;52.028;4.696;2022-09-21T16:21:32;5.32;;;1.75;;
58208;SDS011;44006;52.028;4.696;2022-09-21T16:23:57;7.65;;;1.05;;
58208;SDS011;44006;52.028;4.696;2022-09-21T16:26:34;7.28;;;0.80;;
58208;SDS011;44006;52.028;4.696;2022-09-21T16:38:58;3.35;;;0.90;;
58208;SDS011;44006;52.028;4.696;2022-09-21T16:41:37;5.70;;;1.23;;
58208;SDS011;44006;52.028;4.696;2022-09-21T16:44:04;2.92;;;0.80;;
58208;SDS011;44006;52.028;4.696;2022-09-21T16:46:29;3.30;;;0.70;;
58208;SDS011;44006;52.028;4.696;2022-09-21T16:48:55;5.25;;;0.90;;
58208;SDS011;44006;52.028;4.696;2022-09-21T16:51:21;5.03;;;1.05;;
58208;SDS011;44006;52.028;4.696;2022-09-21T16:53:49;2.83;;;0.68;;
58208;SDS011;44006;52.028;4.696;2022-09-21T16:56:15;5.35;;;0.73;;
58208;SDS011;44006;52.028;4.696;2022-09-21T16:58:41;2.28;;;0.50;;
58208;SDS011;44006;52.028;4.696;2022-09-21T17:01:17;3.03;;;0.80;;
58208;SDS011;44006;52.028;4.696;2022-09-21T17:03:44;2.08;;;0.70;;
58208;SDS011;44006;52.028;4.696;2022-09-21T17:06:12;1.38;;;0.50;;
58208;SDS011;44006;52.028;4.696;2022-09-21T17:08:39;3.38;;;0.88;;
58208;SDS011;44006;52.028;4.696;2022-09-21T17:11:04;3.97;;;0.93;;
58208;SDS011;44006;52.028;4.696;2022-09-21T17:13:30;3.53;;;0.80;;
58208;SDS011;44006;52.028;4.696;2022-09-21T17:15:56;1.95;;;0.70;;
58208;SDS011;44006;52.028;4.696;2022-09-21T17:18:22;3.60;;;1.15;;
58208;SDS011;44006;52.028;4.696;2022-09-21T17:20:47;4.22;;;1.00;;
58208;SDS011;44006;52.028;4.696;2022-09-21T17:23:13;3.85;;;0.70;;
58208;SDS011;44006;52.028;4.696;2022-09-21T17:25:39;2.85;;;0.85;;
58208;SDS011;44006;52.028;4.696;2022-09-21T17:28:14;5.27;;;0.97;;
58208;SDS011;44006;52.028;4.696;2022-09-21T17:30:41;4.65;;;0.88;;
58208;SDS011;44006;52.028;4.696;2022-09-21T17:33:07;4.57;;;0.85;;
58208;SDS011;44006;52.028;4.696;2022-09-21T17:35:37;3.05;;;1.08;;
58208;SDS011;44006;52.028;4.696;2022-09-21T17:38:02;5.00;;;1.15;;
58208;SDS011;44006;52.028;4.696;2022-09-21T17:40:29;3.05;;;0.63;;
58208;SDS011;44006;52.028;4.696;2022-09-21T17:42:56;1.98;;;0.90;;
58208;SDS011;44006;52.028;4.696;2022-09-21T17:45:31;3.45;;;0.90;;
58208;SDS011;44006;52.028;4.696;2022-09-21T17:48:03;4.53;;;0.82;;
58208;SDS011;44006;52.028;4.696;2022-09-21T17:50:28;3.47;;;0.82;;
58208;SDS011;44006;52.028;4.696;2022-09-21T17:52:54;4.20;;;1.05;;
58208;SDS011;44006;52.028;4.696;2022-09-21T17:55:41;3.47;;;0.85;;
58208;SDS011;44006;52.028;4.696;2022-09-21T18:00:43;4.30;;;1.15;;
58208;SDS011;44006;52.028;4.696;2022-09-21T18:03:18;5.05;;;1.30;;
58208;SDS011;44006;52.028;4.696;2022-09-21T18:05:45;5.18;;;1.33;;
58208;SDS011;44006;52.028;4.696;2022-09-21T18:08:11;5.00;;;1.23;;
58208;SDS011;44006;52.028;4.696;2022-09-21T18:10:37;3.92;;;1.40;;
58208;SDS011;44006;52.028;4.696;2022-09-21T18:13:09;6.82;;;1.40;;
58208;SDS011;44006;52.028;4.696;2022-09-21T18:15:41;11.32;;;1.83;;
58208;SDS011;44006;52.028;4.696;2022-09-21T18:23:09;5.38;;;1.65;;
58208;SDS011;44006;52.028;4.696;2022-09-21T18:25:37;8.02;;;1.60;;
58208;SDS011;44006;52.028;4.696;2022-09-21T18:28:13;6.15;;;1.42;;
58208;SDS011;44006;52.028;4.696;2022-09-21T18:30:41;6.10;;;1.20;;
58208;SDS011;44006;52.028;4.696;2022-09-21T18:33:09;6.32;;;2.28;;
58208;SDS011;44006;52.028;4.696;2022-09-21T18:35:45;7.72;;;1.95;;
58208;SDS011;44006;52.028;4.696;2022-09-21T18:38:26;6.18;;;1.80;;
58208;SDS011;44006;52.028;4.696;2022-09-21T18:41:08;5.70;;;1.88;;
58208;SDS011;44006;52.028;4.696;2022-09-21T18:48:39;7.47;;;2.10;;
58208;SDS011;44006;52.028;4.696;2022-09-21T18:53:44;6.03;;;2.30;;